Time;durP1;ratioP1;P1;durP2;ratioP2;P2;SDS_P1;SDS_P2;PMS_P1;PMS_P2;Temp;Humidity;BMP_temperature;BMP_pressure;BME280_temperature;BME280_humidity;BME280_pressure;Samples;Min_cycle;Max_cycle;Signal;HPM_P1;HPM_P2
2022/03/21 00:02:19;;;;;;;9.80;9.50;;;4.90;99.90;;;;;;5077428;28;20288;-86
2022/03/21 00:04:47;;;;;;;9.50;9.20;;;4.90;99.90;;;;;;5078874;28;20238;-84
2022/03/21 00:07:16;;;;;;;9.60;9.30;;;5.00;99.90;;;;;;5078481;28;20280;-86
2022/03/21 00:09:46;;;;;;;9.70;9.40;;;4.90;99.90;;;;;;5080321;28;20672;-84
2022/03/21 00:12:14;;;;;;;9.90;9.60;;;4.80;99.90;;;;;;5080258;28;20237;-84
2022/03/21 00:14:44;;;;;;;9.80;9.50;;;4.70;99.90;;;;;;5079675;28;20238;-86
2022/03/21 00:17:13;;;;;;;9.60;9.30;;;4.70;99.90;;;;;;5078642;28;20398;-85
2022/03/21 00:19:52;;;;;;;9.60;9.30;;;4.70;99.90;;;;;;5079000;28;20226;-84
2022/03/21 00:22:22;;;;;;;9.70;9.40;;;4.60;99.90;;;;;;5078743;28;20230;-84
2022/03/21 00:24:52;;;;;;;9.80;9.50;;;4.50;99.90;;;;;;5078659;28;20312;-85
2022/03/21 00:27:20;;;;;;;9.70;9.40;;;4.40;99.90;;;;;;5079542;28;20242;-84
2022/03/21 00:29:47;;;;;;;9.77;9.47;;;4.40;99.90;;;;;;5078776;28;20249;-84
2022/03/21 00:32:18;;;;;;;9.60;9.30;;;4.50;99.90;;;;;;5078767;28;20236;-85
2022/03/21 00:34:53;;;;;;;9.70;9.40;;;4.50;99.90;;;;;;5079031;28;20234;-84
2022/03/21 00:37:26;;;;;;;9.80;9.50;;;4.60;99.90;;;;;;5079052;28;20239;-85
2022/03/21 00:39:56;;;;;;;9.90;9.60;;;4.60;99.90;;;;;;5060639;28;20230;-84
2022/03/21 00:42:25;;;;;;;9.53;9.23;;;4.60;99.90;;;;;;5067979;28;20214;-85
2022/03/21 00:44:56;;;;;;;9.70;9.40;;;4.70;99.90;;;;;;5079086;28;20344;-84
2022/03/21 00:47:25;;;;;;;9.47;9.17;;;4.70;99.90;;;;;;5083619;28;20237;-84
2022/03/21 00:49:55;;;;;;;9.50;9.20;;;4.70;99.90;;;;;;5082110;28;20321;-84
2022/03/21 00:52:23;;;;;;;9.47;9.17;;;4.70;99.90;;;;;;5080043;28;20889;-85
2022/03/21 00:54:52;;;;;;;9.57;9.27;;;4.70;99.90;;;;;;5080241;28;20229;-85
2022/03/21 00:57:20;;;;;;;9.73;9.43;;;4.70;99.90;;;;;;5080392;28;20234;-85
2022/03/21 00:59:47;;;;;;;9.53;9.23;;;4.70;99.90;;;;;;5079807;28;20240;-85
2022/03/21 01:02:23;;;;;;;9.57;9.27;;;4.60;99.90;;;;;;5078737;28;20234;-84
2022/03/21 01:04:50;;;;;;;9.60;9.30;;;4.60;99.90;;;;;;5079744;28;20237;-85
2022/03/21 01:07:26;;;;;;;9.67;9.37;;;4.60;99.90;;;;;;5079168;28;20234;-84
2022/03/21 01:09:56;;;;;;;9.60;9.30;;;4.60;99.90;;;;;;5080176;28;20226;-84
2022/03/21 01:12:27;;;;;;;9.60;9.30;;;4.50;99.90;;;;;;5098673;28;20229;-83
2022/03/21 01:14:56;;;;;;;9.47;9.17;;;4.50;99.90;;;;;;5099429;28;20218;-83
2022/03/21 01:17:26;;;;;;;9.40;9.10;;;4.40;99.90;;;;;;5099422;27;20428;-83
2022/03/21 01:19:56;;;;;;;9.60;9.30;;;4.40;99.90;;;;;;5099139;28;20237;-83
2022/03/21 01:22:26;;;;;;;9.50;9.20;;;4.40;99.90;;;;;;5099013;28;20246;-83
2022/03/21 01:24:54;;;;;;;9.90;9.60;;;4.40;99.90;;;;;;5098994;28;20237;-85
2022/03/21 01:27:22;;;;;;;9.60;9.30;;;4.30;99.90;;;;;;5098419;28;20225;-84
2022/03/21 01:29:53;;;;;;;9.67;9.37;;;4.20;99.90;;;;;;5096418;28;20226;-84
2022/03/21 01:32:22;;;;;;;9.60;9.30;;;4.10;99.90;;;;;;5091776;28;20272;-84
2022/03/21 01:34:52;;;;;;;9.60;9.30;;;4.00;99.90;;;;;;5083317;28;20260;-84
2022/03/21 01:37:21;;;;;;;9.67;9.37;;;3.90;99.90;;;;;;5080803;28;20234;-83
2022/03/21 01:39:51;;;;;;;9.60;9.30;;;3.80;99.90;;;;;;5079474;28;20234;-84
2022/03/21 01:42:22;;;;;;;9.53;9.23;;;3.80;99.90;;;;;;5077631;28;20233;-84
2022/03/21 01:44:55;;;;;;;9.47;9.17;;;3.70;99.90;;;;;;5078132;28;20238;-85
2022/03/21 01:47:25;;;;;;;9.60;9.30;;;3.70;99.90;;;;;;5079489;28;20234;-84
2022/03/21 01:49:58;;;;;;;9.70;9.40;;;3.60;99.90;;;;;;5078792;28;20287;-84
2022/03/21 01:52:28;;;;;;;9.70;9.40;;;3.60;99.90;;;;;;5078829;28;20745;-84
2022/03/21 01:57:48;;;;;;;9.60;9.30;;;3.50;99.90;;;;;;5081621;28;20210;-84
2022/03/21 02:00:16;;;;;;;9.50;9.20;;;3.50;99.90;;;;;;5081697;28;20234;-85
2022/03/21 02:02:44;;;;;;;9.40;9.10;;;3.40;99.90;;;;;;5081585;28;20280;-84
2022/03/21 02:05:13;;;;;;;9.40;9.10;;;3.40;99.90;;;;;;5081838;28;20268;-85
2022/03/21 02:07:43;;;;;;;9.00;8.80;;;3.30;99.90;;;;;;5081396;28;20291;-84
2022/03/21 02:10:23;;;;;;;9.43;9.13;;;3.30;99.90;;;;;;5081788;28;20233;-85
2022/03/21 02:12:51;;;;;;;9.43;9.13;;;3.20;99.90;;;;;;5081114;28;20289;-84
2022/03/21 02:15:22;;;;;;;9.30;9.00;;;3.10;99.90;;;;;;5081286;28;20242;-84
2022/03/21 02:18:00;;;;;;;9.30;9.00;;;3.00;99.90;;;;;;5081555;28;20237;-84
2022/03/21 02:20:29;;;;;;;9.20;8.90;;;3.00;99.90;;;;;;5084217;28;20226;-84
2022/03/21 02:23:08;;;;;;;9.30;9.00;;;2.90;99.90;;;;;;5083943;28;20234;-84
2022/03/21 02:25:42;;;;;;;8.97;8.77;;;2.80;99.90;;;;;;5083725;28;20238;-85
2022/03/21 02:28:15;;;;;;;9.70;9.40;;;2.80;99.90;;;;;;5082987;28;20249;-85
2022/03/21 02:30:46;;;;;;;9.60;9.30;;;2.70;99.90;;;;;;5081688;28;20238;-84
2022/03/21 02:33:15;;;;;;;9.30;9.00;;;2.70;99.90;;;;;;5081174;28;20284;-84
2022/03/21 02:35:47;;;;;;;9.60;9.30;;;2.60;99.90;;;;;;5080858;28;20237;-84
2022/03/21 02:38:20;;;;;;;9.30;9.00;;;2.60;99.90;;;;;;5082621;28;20230;-84
2022/03/21 02:40:52;;;;;;;9.30;9.00;;;2.50;99.90;;;;;;5081733;28;20229;-84
2022/03/21 02:43:20;;;;;;;9.40;9.10;;;2.40;99.90;;;;;;5079740;28;20238;-84
2022/03/21 02:45:49;;;;;;;9.57;9.27;;;2.30;99.90;;;;;;5080228;28;20391;-84
2022/03/21 02:48:20;;;;;;;9.30;9.00;;;2.20;99.90;;;;;;5080369;28;20238;-83
2022/03/21 02:51:05;;;;;;;9.07;8.80;;;2.10;99.90;;;;;;5080161;28;20256;-83
2022/03/21 02:53:35;;;;;;;9.20;8.90;;;2.10;99.90;;;;;;5079684;28;20298;-83
2022/03/21 02:56:07;;;;;;;9.40;9.10;;;2.00;99.90;;;;;;5080807;28;20241;-84
2022/03/21 02:58:34;;;;;;;9.03;8.80;;;2.00;99.90;;;;;;5080642;28;20237;-84
2022/03/21 03:01:13;;;;;;;9.33;9.03;;;1.90;99.90;;;;;;5080618;28;20233;-84
2022/03/21 03:03:41;;;;;;;9.13;8.90;;;1.90;99.90;;;;;;5080437;28;20226;-84
2022/03/21 03:06:09;;;;;;;9.03;8.80;;;1.80;99.90;;;;;;5079577;28;20260;-84
2022/03/21 03:08:40;;;;;;;9.27;8.97;;;1.80;99.90;;;;;;5088362;28;20238;-83
2022/03/21 03:11:14;;;;;;;9.00;8.80;;;1.80;99.90;;;;;;5088131;28;20226;-83
2022/03/21 03:13:50;;;;;;;9.33;9.03;;;1.70;99.90;;;;;;5080850;28;20226;-84
2022/03/21 03:16:18;;;;;;;9.60;9.30;;;1.70;99.90;;;;;;5080097;28;20240;-84
2022/03/21 03:18:47;;;;;;;9.40;9.10;;;1.70;99.90;;;;;;5080337;28;20234;-84
2022/03/21 03:21:19;;;;;;;9.67;9.37;;;1.70;99.90;;;;;;5079643;28;20242;-84
2022/03/21 03:23:55;;;;;;;9.50;9.20;;;1.60;99.90;;;;;;5079300;28;20214;-84
2022/03/21 03:26:26;;;;;;;9.47;9.17;;;1.60;99.90;;;;;;5079631;28;20268;-84
2022/03/21 03:28:54;;;;;;;9.57;9.27;;;1.50;99.90;;;;;;5080788;28;20226;-84
2022/03/21 03:31:22;;;;;;;9.57;9.27;;;1.50;99.90;;;;;;5082119;28;20234;-84
2022/03/21 03:33:53;;;;;;;9.43;9.13;;;1.50;99.90;;;;;;5081298;28;20226;-84
2022/03/21 03:36:23;;;;;;;9.43;9.13;;;1.50;99.90;;;;;;5080719;28;20242;-84
2022/03/21 03:38:52;;;;;;;9.77;9.47;;;1.40;99.90;;;;;;5080567;28;20218;-84
2022/03/21 03:41:28;;;;;;;9.50;9.20;;;1.40;99.90;;;;;;5079468;28;20222;-84
2022/03/21 03:43:58;;;;;;;9.77;9.47;;;1.40;99.90;;;;;;5078879;28;20226;-84
2022/03/21 03:46:26;;;;;;;9.70;9.40;;;1.40;99.90;;;;;;5079316;28;20386;-84
2022/03/21 03:48:58;;;;;;;9.30;9.00;;;1.40;99.90;;;;;;5079489;28;20288;-84
2022/03/21 03:51:28;;;;;;;9.23;8.93;;;1.30;99.90;;;;;;5079611;28;20278;-83
2022/03/21 03:53:58;;;;;;;9.50;9.20;;;1.30;99.90;;;;;;5079244;28;20238;-84
2022/03/21 03:56:39;;;;;;;9.30;9.00;;;1.30;99.90;;;;;;5079753;28;20238;-84
2022/03/21 03:59:07;;;;;;;9.27;8.97;;;1.30;99.90;;;;;;5080295;28;20218;-83
2022/03/21 04:01:37;;;;;;;9.70;9.40;;;1.30;99.90;;;;;;5079946;28;20242;-84
2022/03/21 04:04:05;;;;;;;9.60;9.30;;;1.30;99.90;;;;;;5079369;28;20230;-84
2022/03/21 04:06:34;;;;;;;9.30;9.00;;;1.30;99.90;;;;;;5079592;28;20234;-84
2022/03/21 04:09:03;;;;;;;9.40;9.10;;;1.30;99.90;;;;;;5079735;28;20257;-84
2022/03/21 04:11:42;;;;;;;9.80;9.50;;;1.30;99.90;;;;;;5079672;28;20230;-83
2022/03/21 04:14:11;;;;;;;9.30;9.00;;;1.20;99.90;;;;;;5078370;28;20237;-84
2022/03/21 04:16:43;;;;;;;9.60;9.30;;;1.10;99.90;;;;;;5079662;28;20234;-83
2022/03/21 04:19:11;;;;;;;9.60;9.30;;;1.10;99.90;;;;;;5080437;28;20237;-83
2022/03/21 04:21:39;;;;;;;9.83;9.53;;;1.00;99.90;;;;;;5080055;28;20226;-83
2022/03/21 04:24:08;;;;;;;9.53;9.23;;;1.00;99.90;;;;;;5079818;28;20225;-84
2022/03/21 04:26:42;;;;;;;9.67;9.37;;;0.90;99.90;;;;;;5079566;28;20226;-84
2022/03/21 04:29:09;;;;;;;9.80;9.50;;;0.90;99.90;;;;;;5079497;28;20230;-84
2022/03/21 04:31:37;;;;;;;9.60;9.30;;;0.90;99.90;;;;;;5078501;28;20365;-84
2022/03/21 04:34:05;;;;;;;9.90;9.60;;;0.90;99.90;;;;;;5078261;28;20245;-83
2022/03/21 04:36:39;;;;;;;9.80;9.50;;;0.90;99.90;;;;;;5078832;28;20620;-83
2022/03/21 04:39:07;;;;;;;9.70;9.40;;;0.90;99.90;;;;;;5078977;28;20229;-83
2022/03/21 04:41:37;;;;;;;9.43;9.13;;;0.80;99.90;;;;;;5078837;28;20233;-83
2022/03/21 04:44:05;;;;;;;9.60;9.30;;;0.80;99.90;;;;;;5077973;28;20237;-84
2022/03/21 04:46:34;;;;;;;9.63;9.33;;;0.80;99.90;;;;;;5078852;28;20237;-84
2022/03/21 04:49:03;;;;;;;9.43;9.13;;;0.80;99.90;;;;;;5078960;28;20240;-84
2022/03/21 04:51:33;;;;;;;9.60;9.30;;;0.70;99.90;;;;;;5078950;28;20281;-84
2022/03/21 04:54:04;;;;;;;9.40;9.10;;;0.70;99.90;;;;;;5078515;28;20229;-83
2022/03/21 04:56:32;;;;;;;9.30;9.00;;;0.70;99.90;;;;;;5079243;28;20222;-84
2022/03/21 04:59:01;;;;;;;9.90;9.60;;;0.70;99.90;;;;;;5078758;28;20226;-85
2022/03/21 05:01:31;;;;;;;10.40;10.10;;;0.70;99.90;;;;;;5078639;28;20244;-83
2022/03/21 05:04:00;;;;;;;10.20;9.90;;;0.70;99.90;;;;;;5079742;28;20678;-83
2022/03/21 05:06:29;;;;;;;10.13;9.83;;;0.70;99.90;;;;;;5079388;28;20610;-83
2022/03/21 05:09:03;;;;;;;10.20;9.90;;;0.70;99.90;;;;;;5079338;28;20230;-84
2022/03/21 05:11:30;;;;;;;10.30;10.00;;;0.70;99.90;;;;;;5083841;28;20230;-82
2022/03/21 05:13:58;;;;;;;10.60;10.30;;;0.60;99.90;;;;;;5097429;28;20249;-83
2022/03/21 05:16:30;;;;;;;10.50;10.20;;;0.60;99.90;;;;;;5079990;28;20241;-83
2022/03/21 05:18:58;;;;;;;10.40;10.10;;;0.60;99.90;;;;;;5090341;28;20237;-82
2022/03/21 05:21:25;;;;;;;10.10;9.80;;;0.50;99.90;;;;;;5089720;28;20218;-83
2022/03/21 05:32:10;;;;;;;10.20;9.90;;;0.50;99.90;;;;;;5098944;28;20198;-83
2022/03/21 05:37:25;;;;;;;10.40;10.10;;;0.50;99.90;;;;;;5098072;28;20273;-84
2022/03/21 05:42:40;;;;;;;10.17;9.87;;;0.60;99.90;;;;;;5090862;28;20214;-83
2022/03/21 05:45:10;;;;;;;9.90;9.60;;;0.60;99.90;;;;;;5147180;22;20226;-82
2022/03/21 05:50:22;;;;;;;10.27;9.97;;;0.60;99.90;;;;;;5097836;28;20308;-84
2022/03/21 05:52:51;;;;;;;10.40;10.10;;;0.60;99.90;;;;;;5097884;28;20229;-83
2022/03/21 05:55:19;;;;;;;10.50;10.20;;;0.60;99.90;;;;;;5104415;28;20237;-83
2022/03/21 05:57:47;;;;;;;10.33;10.03;;;0.60;99.90;;;;;;5096107;28;20256;-84
2022/03/21 06:00:22;;;;;;;10.50;10.20;;;0.60;99.90;;;;;;5096059;28;20241;-84
2022/03/21 06:02:51;;;;;;;10.53;10.23;;;0.70;99.90;;;;;;5092859;28;20222;-83
2022/03/21 06:05:19;;;;;;;10.20;9.90;;;0.70;99.90;;;;;;5083331;28;20214;-84
2022/03/21 06:07:47;;;;;;;10.10;9.80;;;0.70;99.90;;;;;;5081100;28;20238;-83
2022/03/21 06:10:15;;;;;;;9.90;9.60;;;0.70;99.90;;;;;;5081249;28;20237;-84
2022/03/21 06:12:44;;;;;;;10.07;9.77;;;0.80;99.90;;;;;;5079466;28;20288;-83
2022/03/21 06:15:12;;;;;;;10.70;10.40;;;0.80;99.90;;;;;;5080160;28;20234;-83
2022/03/21 06:17:40;;;;;;;10.67;10.37;;;0.80;99.90;;;;;;5080182;28;20242;-83
2022/03/21 06:20:12;;;;;;;10.43;10.13;;;0.80;99.90;;;;;;5079931;28;20230;-83
2022/03/21 06:22:41;;;;;;;10.67;10.37;;;0.80;99.90;;;;;;5086661;28;20211;-84
2022/03/21 06:25:10;;;;;;;10.47;10.17;;;0.90;99.90;;;;;;5094654;27;20222;-83
2022/03/21 06:27:39;;;;;;;10.50;10.20;;;0.90;99.90;;;;;;5095386;28;20257;-83
2022/03/21 06:30:10;;;;;;;10.40;10.10;;;0.80;99.90;;;;;;5095287;28;20226;-83
2022/03/21 06:32:39;;;;;;;10.50;10.20;;;0.80;99.90;;;;;;5093801;28;20230;-84
2022/03/21 06:35:10;;;;;;;10.43;10.13;;;0.90;99.90;;;;;;5082451;28;20237;-84
2022/03/21 06:37:39;;;;;;;10.40;10.10;;;1.00;99.90;;;;;;5082561;28;20234;-83
2022/03/21 06:40:08;;;;;;;10.33;10.03;;;1.10;99.90;;;;;;5082239;28;20301;-84
2022/03/21 06:42:37;;;;;;;10.50;10.20;;;1.10;99.90;;;;;;5092209;28;20218;-83
2022/03/21 06:45:06;;;;;;;10.40;10.10;;;1.10;99.90;;;;;;5085589;28;20236;-82
2022/03/21 06:47:34;;;;;;;10.40;10.10;;;1.20;99.90;;;;;;5086022;28;20325;-84
2022/03/21 06:50:02;;;;;;;10.20;9.90;;;1.20;99.90;;;;;;5088404;28;20241;-83
2022/03/21 06:52:32;;;;;;;10.37;10.07;;;1.20;99.90;;;;;;5089388;28;20253;-83
2022/03/21 06:55:00;;;;;;;9.90;9.60;;;1.30;99.90;;;;;;5097524;28;20281;-84
2022/03/21 06:57:28;;;;;;;10.50;10.20;;;1.40;99.90;;;;;;5101801;28;20218;-84
2022/03/21 07:00:00;;;;;;;10.20;9.90;;;1.50;99.90;;;;;;5086592;28;20233;-83
2022/03/21 07:02:29;;;;;;;10.40;10.10;;;1.60;99.90;;;;;;5085365;28;20293;-83
2022/03/21 07:04:58;;;;;;;10.30;10.00;;;1.70;99.90;;;;;;5083164;28;20242;-83
2022/03/21 07:07:25;;;;;;;10.07;9.77;;;1.80;99.90;;;;;;5081793;28;20526;-83
2022/03/21 07:09:55;;;;;;;10.50;10.20;;;1.90;99.90;;;;;;5083338;28;20231;-84
2022/03/21 07:12:24;;;;;;;10.50;10.20;;;2.00;99.90;;;;;;5081916;28;20222;-83
2022/03/21 07:14:52;;;;;;;10.13;9.83;;;2.10;99.90;;;;;;5081730;28;20242;-83
2022/03/21 07:17:20;;;;;;;10.27;9.97;;;2.20;99.90;;;;;;5082008;28;20226;-83
2022/03/21 07:19:48;;;;;;;10.57;10.27;;;2.30;99.90;;;;;;5082019;28;20234;-83
2022/03/21 07:22:16;;;;;;;10.60;10.30;;;2.50;99.90;;;;;;5081713;28;20226;-83
2022/03/21 07:24:45;;;;;;;10.40;10.10;;;2.60;99.90;;;;;;5082762;28;20226;-84
2022/03/21 07:27:14;;;;;;;10.37;10.07;;;2.80;99.90;;;;;;5081556;28;20254;-83
2022/03/21 07:29:42;;;;;;;10.37;10.07;;;3.00;99.90;;;;;;5082211;28;20246;-83
2022/03/21 07:32:10;;;;;;;10.10;9.80;;;3.10;99.90;;;;;;5082754;28;20226;-84
2022/03/21 07:34:38;;;;;;;10.20;9.90;;;3.30;99.90;;;;;;5082966;28;20234;-84
2022/03/21 07:37:09;;;;;;;10.40;10.10;;;3.50;99.90;;;;;;5082648;28;20230;-81
2022/03/21 07:39:39;;;;;;;10.80;10.50;;;3.60;99.90;;;;;;5081526;28;20420;-81
2022/03/21 07:42:09;;;;;;;10.57;10.27;;;3.70;99.90;;;;;;5087794;28;20230;-81
2022/03/21 07:47:25;;;;;;;10.50;10.20;;;4.20;99.90;;;;;;5079484;28;20312;-81
2022/03/21 07:49:56;;;;;;;10.47;10.17;;;4.40;99.90;;;;;;5078447;28;20309;-80
2022/03/21 07:52:25;;;;;;;10.50;10.20;;;4.50;99.90;;;;;;5078993;28;20252;-81
2022/03/21 07:54:55;;;;;;;10.27;9.97;;;4.60;99.90;;;;;;5079638;28;20268;-82
2022/03/21 07:57:27;;;;;;;10.50;10.20;;;4.70;99.90;;;;;;5079760;28;20221;-81
2022/03/21 08:00:14;;;;;;;10.50;10.20;;;4.80;99.90;;;;;;5079898;28;20233;-82
2022/03/21 08:02:46;;;;;;;10.80;10.50;;;5.00;99.90;;;;;;5079744;28;20233;-83
2022/03/21 08:05:41;;;;;;;10.43;10.13;;;5.20;99.90;;;;;;5078910;28;20256;-83
2022/03/21 08:08:26;;;;;;;10.37;10.07;;;5.30;99.90;;;;;;5080706;28;20238;-84
2022/03/21 08:10:56;;;;;;;10.80;10.50;;;5.40;99.90;;;;;;5080295;28;20237;-81
2022/03/21 08:13:25;;;;;;;10.70;10.40;;;5.40;99.90;;;;;;5078770;28;20221;-82
2022/03/21 08:15:57;;;;;;;10.87;10.57;;;5.50;99.90;;;;;;5078903;28;20292;-82
2022/03/21 08:18:29;;;;;;;10.70;10.40;;;5.60;99.90;;;;;;5079102;28;20233;-81
2022/03/21 08:21:02;;;;;;;10.70;10.40;;;5.70;99.90;;;;;;5079034;28;20222;-82
2022/03/21 08:23:41;;;;;;;10.10;9.80;;;5.80;99.90;;;;;;5078776;28;20792;-82
2022/03/21 08:26:17;;;;;;;10.37;10.07;;;5.80;99.90;;;;;;5079506;28;20316;-82
2022/03/21 08:28:47;;;;;;;10.40;10.10;;;5.90;99.90;;;;;;5080401;28;20267;-82
2022/03/21 08:31:16;;;;;;;10.50;10.20;;;6.00;99.90;;;;;;5078233;28;20245;-80
2022/03/21 08:33:44;;;;;;;10.50;10.20;;;6.10;99.90;;;;;;5077775;28;20222;-80
2022/03/21 08:36:12;;;;;;;10.60;10.30;;;6.30;99.90;;;;;;5078864;28;20234;-80
2022/03/21 08:38:40;;;;;;;10.70;10.40;;;6.40;99.90;;;;;;5079784;28;20230;-79
2022/03/21 08:41:08;;;;;;;10.50;10.20;;;6.50;99.90;;;;;;5079581;28;20324;-80
2022/03/21 08:43:36;;;;;;;10.57;10.27;;;6.60;99.90;;;;;;5077753;28;20291;-79
2022/03/21 08:46:04;;;;;;;10.33;10.03;;;6.90;99.90;;;;;;5076548;28;20264;-81
2022/03/21 08:51:21;;;;;;;10.43;10.13;;;7.30;99.90;;;;;;5081972;28;20226;-78
2022/03/21 08:53:48;;;;;;;10.77;10.47;;;7.40;99.90;;;;;;5079520;28;20237;-80
2022/03/21 08:56:16;;;;;;;10.73;10.43;;;7.50;99.90;;;;;;5080032;28;20231;-80
2022/03/21 08:58:45;;;;;;;9.97;9.67;;;7.40;99.90;;;;;;5086228;28;20226;-81
2022/03/21 09:01:13;;;;;;;10.10;9.80;;;7.50;99.90;;;;;;5081328;28;20226;-82
2022/03/21 09:03:42;;;;;;;10.10;9.80;;;7.70;99.90;;;;;;5079297;28;20264;-82
2022/03/21 09:06:10;;;;;;;10.60;10.30;;;8.00;99.90;;;;;;5080266;28;20326;-82
2022/03/21 09:08:38;;;;;;;10.17;9.87;;;8.30;99.90;;;;;;5079975;28;20256;-82
2022/03/21 09:11:06;;;;;;;10.10;9.80;;;8.50;99.90;;;;;;5086835;27;20256;-82
2022/03/21 09:13:34;;;;;;;10.10;9.80;;;8.60;99.90;;;;;;5079296;28;20218;-81
2022/03/21 09:16:02;;;;;;;10.00;9.70;;;8.70;99.90;;;;;;5078805;28;20226;-81
2022/03/21 09:18:30;;;;;;;10.73;10.43;;;8.90;99.90;;;;;;5075394;28;20234;-81
2022/03/21 09:21:00;;;;;;;10.63;10.33;;;9.00;99.90;;;;;;5078703;28;20241;-81
2022/03/21 09:23:28;;;;;;;10.87;10.57;;;9.20;99.90;;;;;;5078263;28;20324;-81
2022/03/21 09:25:56;;;;;;;10.70;10.40;;;9.50;99.90;;;;;;5078772;28;20238;-83
2022/03/21 09:28:24;;;;;;;10.67;10.37;;;9.70;99.90;;;;;;5071233;28;20264;-81
2022/03/21 09:30:53;;;;;;;11.03;10.73;;;9.80;99.90;;;;;;5075520;28;20230;-81
2022/03/21 09:33:20;;;;;;;10.90;10.60;;;9.80;99.90;;;;;;5060443;28;20222;-81
2022/03/21 09:35:54;;;;;;;11.07;10.77;;;9.90;99.90;;;;;;5061869;28;20234;-81
2022/03/21 09:38:23;;;;;;;11.00;10.70;;;10.10;99.90;;;;;;5070609;28;20242;-79
2022/03/21 09:40:51;;;;;;;10.97;10.67;;;10.30;99.90;;;;;;5077191;28;20225;-77
2022/03/21 09:43:19;;;;;;;11.10;10.80;;;10.60;99.90;;;;;;5075878;28;20215;-77
2022/03/21 09:45:47;;;;;;;10.90;10.60;;;11.00;99.90;;;;;;5077225;28;20227;-77
2022/03/21 09:48:17;;;;;;;11.20;10.90;;;11.20;99.90;;;;;;5079076;28;20314;-84
2022/03/21 09:50:46;;;;;;;10.80;10.50;;;11.50;99.90;;;;;;5078621;28;20211;-80
2022/03/21 09:53:16;;;;;;;10.63;10.33;;;11.50;99.90;;;;;;5078304;28;20222;-80
2022/03/21 09:55:47;;;;;;;10.60;10.30;;;11.30;99.90;;;;;;5078414;28;20223;-84
2022/03/21 09:58:30;;;;;;;10.57;10.27;;;11.10;99.90;;;;;;5080806;28;20241;-82
2022/03/21 10:00:58;;;;;;;10.47;10.17;;;11.00;99.90;;;;;;5078800;28;20227;-82
2022/03/21 10:03:26;;;;;;;10.80;10.50;;;11.30;99.90;;;;;;5078317;28;20247;-82
2022/03/21 10:05:54;;;;;;;10.80;10.50;;;11.50;99.90;;;;;;5078477;28;20214;-82
2022/03/21 10:08:27;;;;;;;10.80;10.50;;;11.80;99.90;;;;;;5077943;28;20234;-83
2022/03/21 10:10:59;;;;;;;10.90;10.60;;;12.20;99.90;;;;;;5078346;28;20237;-81
2022/03/21 10:13:29;;;;;;;10.70;10.40;;;12.50;99.90;;;;;;5078233;28;20212;-81
2022/03/21 10:16:16;;;;;;;10.67;10.37;;;12.80;99.90;;;;;;5079320;28;20235;-82
2022/03/21 10:19:00;;;;;;;10.40;10.10;;;12.90;99.90;;;;;;5080274;28;20214;-82
2022/03/21 10:21:31;;;;;;;10.43;10.13;;;12.80;99.90;;;;;;5081330;28;20249;-83
2022/03/21 10:24:02;;;;;;;10.50;10.20;;;12.60;99.90;;;;;;5080669;28;20213;-81
2022/03/21 10:26:34;;;;;;;10.67;10.37;;;12.80;99.90;;;;;;5077199;28;20219;-81
2022/03/21 10:29:07;;;;;;;10.73;10.43;;;13.00;99.90;;;;;;5078520;28;20237;-81
2022/03/21 10:31:41;;;;;;;10.43;10.13;;;12.80;99.90;;;;;;5075513;28;20234;-82
2022/03/21 10:34:15;;;;;;;10.33;10.03;;;13.00;99.90;;;;;;5075541;28;20225;-81
2022/03/21 10:37:06;;;;;;;10.57;10.27;;;13.20;99.90;;;;;;5071630;28;20231;-84
2022/03/21 10:39:38;;;;;;;10.70;10.40;;;13.50;99.90;;;;;;5068966;28;20227;-85
2022/03/21 10:42:10;;;;;;;10.40;10.10;;;14.00;99.90;;;;;;5066485;28;20298;-81
2022/03/21 10:44:39;;;;;;;10.60;10.30;;;14.30;99.90;;;;;;5063195;28;20235;-83
2022/03/21 10:47:09;;;;;;;10.40;10.10;;;14.30;99.90;;;;;;5062268;28;20227;-82
2022/03/21 10:49:40;;;;;;;10.50;10.20;;;14.20;99.90;;;;;;5063502;28;20237;-82
2022/03/21 10:52:09;;;;;;;10.03;9.73;;;14.30;99.90;;;;;;5044445;28;20337;-82
2022/03/21 10:55:01;;;;;;;10.33;10.03;;;14.50;99.90;;;;;;5062100;28;20242;-82
2022/03/21 10:57:37;;;;;;;10.27;9.97;;;14.00;99.90;;;;;;5062146;28;20239;-82
2022/03/21 11:00:20;;;;;;;10.40;10.10;;;13.50;99.90;;;;;;5063600;28;20465;-82
2022/03/21 11:02:57;;;;;;;10.40;10.10;;;13.30;99.90;;;;;;5080064;28;20234;-83
2022/03/21 11:08:20;;;;;;;10.70;10.40;;;14.00;99.90;;;;;;5067984;28;20223;-83
2022/03/21 11:10:48;;;;;;;10.43;10.13;;;14.20;99.90;;;;;;5072807;28;20233;-82
2022/03/21 11:13:27;;;;;;;10.20;9.90;;;14.60;99.90;;;;;;5069123;28;20229;-82
2022/03/21 11:15:55;;;;;;;10.07;9.77;;;15.00;99.50;;;;;;5062788;28;20246;-83
2022/03/21 11:18:23;;;;;;;10.13;9.82;;;15.00;99.90;;;;;;5063606;28;20227;-82
2022/03/21 11:20:52;;;;;;;10.25;9.95;;;15.40;99.90;;;;;;5063808;28;20230;-82
2022/03/21 11:23:32;;;;;;;10.38;10.07;;;15.80;99.30;;;;;;5063030;28;20223;-82
2022/03/21 11:26:15;;;;;;;10.20;9.90;;;16.10;96.80;;;;;;5063010;28;20230;-81
2022/03/21 11:29:09;;;;;;;10.13;9.82;;;16.00;97.30;;;;;;5062913;28;20219;-84
2022/03/21 11:32:10;;;;;;;10.32;10.02;;;16.20;97.30;;;;;;5063634;28;20235;-84
2022/03/21 11:34:55;;;;;;;10.65;10.35;;;16.10;96.70;;;;;;5061497;28;20328;-82
2022/03/21 11:37:28;;;;;;;10.30;10.00;;;16.20;95.60;;;;;;5062019;28;20238;-83
2022/03/21 11:40:34;;;;;;;10.60;10.30;;;16.20;96.50;;;;;;5072849;28;20207;-81
2022/03/21 11:43:40;;;;;;;10.48;10.18;;;16.10;95.40;;;;;;5081317;28;20226;-82
2022/03/21 11:46:35;;;;;;;10.75;10.45;;;16.20;96.40;;;;;;5264999;22;20213;-83
2022/03/21 11:49:06;;;;;;;10.60;10.30;;;16.70;94.90;;;;;;5117240;28;20210;-83
2022/03/21 12:07:52;;;;;;;10.80;10.50;;;17.10;93.00;;;;;;5141434;27;20565;-80
2022/03/21 12:10:48;;;;;;;10.60;10.30;;;17.90;92.50;;;;;;5122167;27;20223;-82
2022/03/21 12:13:26;;;;;;;10.60;10.30;;;18.00;90.90;;;;;;5118520;27;20217;-81
2022/03/21 12:16:11;;;;;;;10.50;10.20;;;17.50;92.10;;;;;;5117802;28;20216;-82
2022/03/21 12:18:59;;;;;;;10.70;10.40;;;17.80;91.30;;;;;;5107898;27;20255;-81
2022/03/21 12:21:27;;;;;;;11.00;10.70;;;18.10;90.70;;;;;;5100736;28;20253;-81
2022/03/21 12:24:22;;;;;;;10.73;10.43;;;18.10;89.10;;;;;;5100322;28;20229;-80
2022/03/21 12:27:06;;;;;;;11.10;10.80;;;18.20;91.20;;;;;;5098641;28;20233;-80
2022/03/21 12:29:43;;;;;;;10.88;10.57;;;18.40;90.50;;;;;;5096529;28;20233;-82
2022/03/21 12:32:29;;;;;;;10.90;10.60;;;18.50;90.30;;;;;;5097290;28;20228;-81
2022/03/21 12:34:57;;;;;;;11.00;10.70;;;18.70;88.90;;;;;;5096705;28;20279;-81
2022/03/21 12:37:44;;;;;;;10.90;10.60;;;19.00;88.60;;;;;;5096025;28;20272;-81
2022/03/21 12:40:21;;;;;;;10.90;10.60;;;19.30;88.00;;;;;;5098728;28;20235;-81
2022/03/21 12:42:50;;;;;;;10.93;10.63;;;19.20;86.60;;;;;;5096480;28;20256;-82
2022/03/21 12:45:20;;;;;;;10.60;10.30;;;19.40;87.80;;;;;;5096662;28;20262;-81
2022/03/21 12:47:49;;;;;;;10.73;10.43;;;19.60;86.20;;;;;;5096974;28;20230;-81
2022/03/21 12:50:28;;;;;;;10.95;10.65;;;19.60;83.30;;;;;;5107958;28;20237;-81
2022/03/21 12:53:18;;;;;;;10.50;10.20;;;19.10;81.60;;;;;;5117555;28;20232;-82
2022/03/21 12:56:11;;;;;;;10.60;10.30;;;18.50;82.80;;;;;;5118204;27;20245;-81
2022/03/21 12:58:45;;;;;;;10.50;10.20;;;18.10;86.80;;;;;;5118513;27;20267;-83
2022/03/21 13:01:17;;;;;;;10.60;10.30;;;18.60;85.00;;;;;;5119196;28;20228;-82
2022/03/21 13:03:47;;;;;;;10.48;10.18;;;19.20;84.80;;;;;;5119190;28;20225;-82
2022/03/21 13:11:52;;;;;;;10.50;10.20;;;19.80;79.10;;;;;;5105386;28;20667;-81
2022/03/21 13:14:21;;;;;;;10.07;9.77;;;19.10;82.20;;;;;;5104717;28;20324;-81
2022/03/21 13:16:51;;;;;;;10.45;10.15;;;19.10;81.40;;;;;;5103713;28;20240;-81
2022/03/21 13:19:21;;;;;;;10.50;10.20;;;19.40;81.70;;;;;;5103888;28;20233;-81
2022/03/21 13:21:52;;;;;;;10.43;10.13;;;19.60;80.80;;;;;;5103439;28;20249;-81
2022/03/21 13:24:37;;;;;;;10.77;10.48;;;19.80;79.20;;;;;;5103852;28;20233;-81
2022/03/21 13:27:13;;;;;;;10.63;10.32;;;20.20;79.70;;;;;;5103855;28;20320;-81
2022/03/21 13:29:53;;;;;;;10.70;10.40;;;20.50;78.40;;;;;;5103198;28;20228;-81
2022/03/21 13:32:22;;;;;;;10.77;10.48;;;21.10;78.50;;;;;;5104374;28;20267;-82
2022/03/21 13:34:50;;;;;;;10.45;10.15;;;21.30;74.80;;;;;;5104766;28;20328;-81
2022/03/21 13:37:24;;;;;;;10.40;10.10;;;20.80;76.40;;;;;;5105137;28;20233;-81
2022/03/21 13:39:59;;;;;;;10.60;10.30;;;20.10;77.80;;;;;;5102456;28;20283;-81
2022/03/21 13:42:37;;;;;;;10.50;10.20;;;19.80;76.20;;;;;;5103457;28;20239;-81
2022/03/21 13:45:09;;;;;;;10.23;9.93;;;19.30;77.70;;;;;;5102355;28;20233;-81
2022/03/21 13:47:53;;;;;;;10.30;10.00;;;18.80;75.30;;;;;;5103896;28;20232;-81
2022/03/21 13:50:33;;;;;;;10.40;10.10;;;18.90;77.90;;;;;;5105096;28;20221;-82
2022/03/21 13:53:04;;;;;;;10.52;10.23;;;19.40;76.10;;;;;;5104522;28;20239;-80
2022/03/21 13:55:51;;;;;;;10.75;10.45;;;20.00;78.10;;;;;;5104630;28;21117;-80
2022/03/21 14:01:29;;;;;;;10.73;10.43;;;20.50;74.80;;;;;;5105641;28;20275;-80